Time;durP1;ratioP1;P1;durP2;ratioP2;P2;SDS_P1;SDS_P2;PMS_P1;PMS_P2;Temp;Humidity;BMP_temperature;BMP_pressure;BME280_temperature;BME280_humidity;BME280_pressure;Samples;Min_cycle;Max_cycle;Signal;HPM_P1;HPM_P2
2022/07/11 00:01:30;;;;;;;2.20;1.00;;;13.30;99.90;;;;;;4209026;28;20213;-76
2022/07/11 00:03:34;;;;;;;2.87;1.20;;;13.30;99.90;;;;;;4211112;28;20223;-76
2022/07/11 00:05:36;;;;;;;2.00;1.00;;;13.30;99.90;;;;;;4209380;28;20205;-76
2022/07/11 00:07:38;;;;;;;3.17;1.20;;;13.30;99.90;;;;;;4199189;28;20231;-76
2022/07/11 00:09:40;;;;;;;1.63;0.87;;;13.20;99.90;;;;;;4188578;28;20293;-76
2022/07/11 00:11:42;;;;;;;1.60;0.87;;;13.20;99.90;;;;;;4208035;28;20287;-76
2022/07/11 00:13:44;;;;;;;1.00;0.80;;;13.20;99.90;;;;;;4213588;28;20307;-76
2022/07/11 00:15:46;;;;;;;1.43;0.90;;;13.20;99.90;;;;;;4210123;28;20675;-76
2022/07/11 00:17:47;;;;;;;3.40;0.97;;;13.10;99.90;;;;;;4209215;28;20684;-76
2022/07/11 00:19:51;;;;;;;1.50;0.90;;;13.10;99.90;;;;;;4191975;28;20245;-76
2022/07/11 00:21:53;;;;;;;1.97;1.00;;;13.00;99.90;;;;;;4207108;28;20231;-75
2022/07/11 00:23:58;;;;;;;1.30;0.83;;;13.00;99.90;;;;;;4212241;28;20231;-76
2022/07/11 00:26:00;;;;;;;2.20;0.83;;;12.90;99.90;;;;;;4201158;28;20217;-76
2022/07/11 00:28:01;;;;;;;1.60;0.87;;;12.90;99.90;;;;;;4205196;28;20663;-76
2022/07/11 00:30:04;;;;;;;1.90;0.90;;;12.90;99.90;;;;;;4209588;28;20295;-76
2022/07/11 00:32:07;;;;;;;2.60;1.00;;;12.90;99.90;;;;;;4208920;28;20291;-76
2022/07/11 00:34:09;;;;;;;2.50;1.03;;;12.90;99.90;;;;;;4207197;28;20499;-76
2022/07/11 00:36:12;;;;;;;4.87;1.30;;;12.90;99.90;;;;;;4207150;28;20681;-76
2022/07/11 00:38:14;;;;;;;2.43;0.83;;;12.80;99.90;;;;;;4206846;28;20235;-76
2022/07/11 00:40:16;;;;;;;2.50;1.10;;;12.80;99.90;;;;;;4207236;28;20220;-76
2022/07/11 00:42:18;;;;;;;5.13;1.37;;;12.70;99.90;;;;;;4206286;28;20232;-76
2022/07/11 00:44:20;;;;;;;3.40;1.13;;;12.70;99.90;;;;;;4209163;28;20241;-76
2022/07/11 00:46:24;;;;;;;1.53;1.00;;;12.70;99.90;;;;;;4210799;28;20209;-76
2022/07/11 00:48:26;;;;;;;2.33;1.00;;;12.60;99.90;;;;;;4212052;28;20212;-76
2022/07/11 00:50:28;;;;;;;3.70;0.80;;;12.60;99.90;;;;;;4207459;28;20247;-76
2022/07/11 00:52:33;;;;;;;3.50;1.10;;;12.60;99.90;;;;;;4200730;28;20208;-76
2022/07/11 00:54:34;;;;;;;2.93;1.27;;;12.50;99.90;;;;;;4207116;28;20260;-76
2022/07/11 00:56:37;;;;;;;2.90;1.13;;;12.50;99.90;;;;;;4205659;28;20591;-76
2022/07/11 00:58:39;;;;;;;2.83;1.17;;;12.50;99.90;;;;;;4210445;28;20284;-76
2022/07/11 01:00:41;;;;;;;3.03;1.13;;;12.50;99.90;;;;;;4197680;28;20293;-76
2022/07/11 01:02:43;;;;;;;4.87;1.27;;;12.40;99.90;;;;;;4211300;28;20231;-76
2022/07/11 01:04:45;;;;;;;1.93;1.10;;;12.40;99.90;;;;;;4208641;28;20591;-76
2022/07/11 01:06:47;;;;;;;1.67;0.90;;;12.40;99.90;;;;;;4206527;28;20222;-76
2022/07/11 01:08:50;;;;;;;1.87;1.23;;;12.40;99.90;;;;;;4208529;28;20210;-76
2022/07/11 01:10:52;;;;;;;1.80;0.90;;;12.30;99.90;;;;;;4207128;28;20683;-76
2022/07/11 01:12:57;;;;;;;3.60;1.00;;;12.30;99.90;;;;;;4202065;28;20225;-76
2022/07/11 01:14:59;;;;;;;1.23;1.00;;;12.30;99.90;;;;;;4204282;28;20216;-76
2022/07/11 01:17:01;;;;;;;2.00;1.07;;;12.20;99.90;;;;;;4207901;28;20227;-76
2022/07/11 01:19:03;;;;;;;3.73;1.03;;;12.20;99.90;;;;;;4206139;28;20669;-76
2022/07/11 01:21:11;;;;;;;1.47;1.00;;;12.20;99.90;;;;;;4204036;28;20262;-76
2022/07/11 01:23:14;;;;;;;3.50;1.30;;;12.10;99.90;;;;;;4206566;28;20230;-77
2022/07/11 01:25:29;;;;;;;2.80;1.27;;;12.10;99.90;;;;;;4205130;28;20582;-76
2022/07/11 01:27:32;;;;;;;1.27;0.90;;;12.10;99.90;;;;;;4204469;28;20210;-76
2022/07/11 01:29:34;;;;;;;1.77;1.20;;;12.10;99.90;;;;;;4204351;28;20214;-76
2022/07/11 01:31:38;;;;;;;1.80;1.10;;;12.10;99.90;;;;;;4205754;28;20217;-76
2022/07/11 01:33:41;;;;;;;1.10;1.00;;;12.00;99.90;;;;;;4200491;28;20246;-76
2022/07/11 01:35:43;;;;;;;3.60;1.20;;;12.00;99.90;;;;;;4205947;28;20211;-76
2022/07/11 01:37:44;;;;;;;2.57;0.97;;;11.90;99.90;;;;;;4208557;28;20217;-76
2022/07/11 01:39:48;;;;;;;1.60;0.90;;;12.00;99.90;;;;;;4203554;28;20207;-76
2022/07/11 01:41:50;;;;;;;4.47;1.07;;;11.90;99.90;;;;;;4204598;28;20725;-76
2022/07/11 01:43:52;;;;;;;2.07;1.27;;;11.90;99.90;;;;;;4210913;28;20236;-76
2022/07/11 01:45:54;;;;;;;1.57;1.10;;;11.90;99.90;;;;;;4202864;28;20238;-76
2022/07/11 01:47:56;;;;;;;2.40;1.00;;;11.90;99.90;;;;;;4194845;28;20601;-76
2022/07/11 01:49:58;;;;;;;2.40;1.10;;;11.80;99.90;;;;;;4195380;28;20212;-76
2022/07/11 01:52:00;;;;;;;2.93;1.30;;;11.80;99.90;;;;;;4201830;28;20211;-76
2022/07/11 01:54:02;;;;;;;2.13;1.10;;;11.80;99.90;;;;;;4203673;28;20597;-76
2022/07/11 01:56:06;;;;;;;1.47;1.17;;;11.80;99.90;;;;;;4209741;28;20203;-76
2022/07/11 01:58:08;;;;;;;1.97;1.20;;;11.80;99.90;;;;;;4203262;28;20211;-76
2022/07/11 02:00:11;;;;;;;1.27;1.03;;;11.80;99.90;;;;;;4204964;28;20212;-77
2022/07/11 02:02:13;;;;;;;1.20;1.10;;;11.70;99.90;;;;;;4202906;28;20214;-76
2022/07/11 02:04:15;;;;;;;1.23;1.13;;;11.70;99.90;;;;;;4203273;28;20235;-76
2022/07/11 02:06:17;;;;;;;2.10;1.07;;;11.70;99.90;;;;;;4206544;28;20303;-76
2022/07/11 02:08:19;;;;;;;2.07;1.20;;;11.70;99.90;;;;;;4202747;28;20210;-76
2022/07/11 02:10:20;;;;;;;1.60;1.10;;;11.70;99.90;;;;;;4197507;28;20778;-76
2022/07/11 02:12:24;;;;;;;3.10;1.07;;;11.70;99.90;;;;;;4205306;28;20211;-77
2022/07/11 02:14:26;;;;;;;1.43;1.00;;;11.60;99.90;;;;;;4210952;28;20653;-76
2022/07/11 02:16:28;;;;;;;1.80;1.00;;;11.60;99.90;;;;;;4204302;28;20302;-76
2022/07/11 02:18:30;;;;;;;3.47;1.40;;;11.60;99.90;;;;;;4205316;28;20694;-76
2022/07/11 02:20:32;;;;;;;1.23;1.00;;;11.60;99.90;;;;;;4201722;28;20257;-76
2022/07/11 02:22:34;;;;;;;2.97;1.30;;;11.50;99.90;;;;;;4203381;28;20193;-76
2022/07/11 02:24:36;;;;;;;2.43;1.30;;;11.50;99.90;;;;;;4207282;28;20235;-76
2022/07/11 02:26:38;;;;;;;2.13;1.40;;;11.50;99.90;;;;;;4205689;28;20307;-77
2022/07/11 02:28:42;;;;;;;1.63;1.27;;;11.50;99.90;;;;;;4209327;28;20305;-76
2022/07/11 02:30:45;;;;;;;1.83;1.20;;;11.50;99.90;;;;;;4202817;28;20203;-77
2022/07/11 02:32:47;;;;;;;2.10;1.30;;;11.40;99.90;;;;;;4207763;28;20305;-76
2022/07/11 02:34:49;;;;;;;2.20;1.60;;;11.50;99.90;;;;;;4196466;28;20236;-76
2022/07/11 02:37:43;;;;;;;1.73;1.27;;;11.40;99.90;;;;;;4201941;28;20306;-76
2022/07/11 02:40:37;;;;;;;3.20;1.17;;;11.30;99.90;;;;;;4195555;28;20202;-76
2022/07/11 02:43:29;;;;;;;2.10;1.40;;;11.30;99.90;;;;;;4204213;28;20198;-76
2022/07/11 02:46:20;;;;;;;2.63;1.33;;;11.30;99.90;;;;;;4205096;28;20230;-76
2022/07/11 02:49:13;;;;;;;2.63;1.20;;;11.30;99.90;;;;;;4202023;28;20580;-76
2022/07/11 02:52:06;;;;;;;3.27;1.50;;;11.20;99.90;;;;;;4201538;28;20211;-76
2022/07/11 02:54:58;;;;;;;2.70;1.80;;;11.20;99.90;;;;;;4208020;28;20226;-76
2022/07/11 02:57:51;;;;;;;1.50;1.23;;;11.20;99.90;;;;;;4199912;28;20675;-76
2022/07/11 03:00:43;;;;;;;1.50;1.20;;;11.10;99.90;;;;;;4188862;28;20588;-76
2022/07/11 03:03:35;;;;;;;3.10;1.50;;;11.10;99.90;;;;;;4192807;28;20309;-76
2022/07/11 04:23:59;;;;;;;2.63;1.43;;;10.90;99.90;;;;;;4203288;28;20978;-76
2022/07/11 04:26:01;;;;;;;2.93;1.30;;;10.90;99.90;;;;;;4206298;28;20211;-76
2022/07/11 04:28:05;;;;;;;1.83;1.30;;;10.90;99.90;;;;;;4206677;28;20641;-76
2022/07/11 04:30:08;;;;;;;2.70;1.40;;;10.90;99.90;;;;;;4212369;28;20205;-76
2022/07/11 04:32:10;;;;;;;1.80;1.47;;;10.90;99.90;;;;;;4206779;28;20206;-76
2022/07/11 04:34:13;;;;;;;3.77;1.43;;;10.90;99.90;;;;;;4206952;28;20304;-76
2022/07/11 04:36:15;;;;;;;5.10;1.70;;;10.90;99.90;;;;;;4209253;28;20209;-76
2022/07/11 04:38:21;;;;;;;3.30;1.70;;;11.00;99.90;;;;;;4208765;28;20293;-76
2022/07/11 04:40:24;;;;;;;2.70;1.50;;;11.00;99.90;;;;;;4209013;28;20201;-75
2022/07/11 04:42:26;;;;;;;2.20;1.43;;;10.90;99.90;;;;;;4206348;28;20208;-75
2022/07/11 04:44:28;;;;;;;3.67;1.43;;;11.00;99.90;;;;;;4256406;22;20229;-76
2022/07/11 04:46:31;;;;;;;2.90;1.37;;;11.00;99.90;;;;;;4197135;28;20296;-75
2022/07/11 04:48:33;;;;;;;1.10;1.00;;;11.00;99.90;;;;;;4187763;28;20206;-78
2022/07/11 04:50:35;;;;;;;2.97;1.30;;;11.00;99.90;;;;;;4188882;28;20633;-77
2022/07/11 04:52:37;;;;;;;1.87;1.37;;;11.10;99.90;;;;;;4189058;28;20214;-79
2022/07/11 04:54:40;;;;;;;3.57;1.47;;;11.10;99.90;;;;;;4206012;28;20658;-79
2022/07/11 04:56:43;;;;;;;2.17;1.20;;;11.10;99.90;;;;;;4212853;28;20405;-84
2022/07/11 04:58:46;;;;;;;2.30;1.30;;;11.20;99.90;;;;;;4191001;28;20208;-81
2022/07/11 05:00:47;;;;;;;4.93;1.70;;;11.20;99.90;;;;;;4211059;28;20423;-76
2022/07/11 05:02:49;;;;;;;3.67;1.77;;;11.30;99.90;;;;;;4185333;28;20206;-76
2022/07/11 05:04:51;;;;;;;3.30;1.50;;;11.30;99.90;;;;;;4202873;28;20273;-76
2022/07/11 05:06:53;;;;;;;3.23;1.20;;;11.30;99.90;;;;;;4208436;28;20242;-77
2022/07/11 05:08:55;;;;;;;3.83;1.37;;;11.40;99.90;;;;;;4205712;28;20211;-77
2022/07/11 05:10:57;;;;;;;2.40;1.13;;;11.40;99.90;;;;;;4188140;28;20292;-77
2022/07/11 05:13:00;;;;;;;2.77;1.67;;;11.50;99.90;;;;;;4188300;28;20238;-77
2022/07/11 05:15:02;;;;;;;2.70;1.30;;;11.50;99.90;;;;;;4207692;28;20229;-77
2022/07/11 05:17:05;;;;;;;2.07;1.53;;;11.50;99.90;;;;;;4203519;28;20210;-77
2022/07/11 05:19:07;;;;;;;3.17;1.33;;;11.50;99.90;;;;;;4204562;28;20215;-77
2022/07/11 05:21:08;;;;;;;3.77;1.47;;;11.50;99.90;;;;;;4209448;28;20226;-77
2022/07/11 05:23:10;;;;;;;4.23;1.20;;;11.60;99.90;;;;;;4210331;28;20619;-77
2022/07/11 05:25:13;;;;;;;4.27;1.43;;;11.60;99.90;;;;;;4207296;28;20226;-77
2022/07/11 05:27:14;;;;;;;5.70;1.90;;;11.60;99.90;;;;;;4210343;28;20214;-77
2022/07/11 05:29:18;;;;;;;5.20;1.20;;;11.80;99.90;;;;;;4207942;28;20668;-77
2022/07/11 05:31:20;;;;;;;5.20;1.73;;;11.80;99.90;;;;;;4209848;28;20639;-77
2022/07/11 05:33:22;;;;;;;3.20;1.70;;;11.70;99.90;;;;;;4192277;28;20702;-77
2022/07/11 05:35:25;;;;;;;5.70;1.53;;;11.80;99.90;;;;;;4188038;28;20212;-77
2022/07/11 05:37:27;;;;;;;3.10;1.60;;;11.80;99.90;;;;;;4203331;28;20206;-77
2022/07/11 05:39:28;;;;;;;3.10;1.40;;;11.90;99.90;;;;;;4206624;28;20232;-77
2022/07/11 05:41:33;;;;;;;2.30;1.30;;;12.00;99.90;;;;;;4203552;28;20291;-77
2022/07/11 05:43:35;;;;;;;3.07;1.60;;;12.00;99.90;;;;;;4203335;28;20224;-78
2022/07/11 05:45:39;;;;;;;2.80;1.50;;;12.00;99.90;;;;;;4203010;28;20210;-76
2022/07/11 05:47:41;;;;;;;3.47;1.23;;;12.10;99.90;;;;;;4205732;28;20207;-75
2022/07/11 05:49:43;;;;;;;2.10;1.27;;;12.10;99.90;;;;;;4200892;28;20591;-76
2022/07/11 05:51:45;;;;;;;2.73;1.40;;;12.10;99.90;;;;;;4205271;28;20234;-76
2022/07/11 05:53:46;;;;;;;4.13;1.73;;;12.20;99.90;;;;;;4201462;28;20281;-75
2022/07/11 05:55:49;;;;;;;2.63;1.40;;;12.20;99.90;;;;;;4186938;28;20300;-75
2022/07/11 05:57:50;;;;;;;2.17;1.30;;;12.30;99.90;;;;;;4204080;28;20223;-76
2022/07/11 05:59:53;;;;;;;4.33;1.37;;;12.30;99.90;;;;;;4204170;28;20706;-75
2022/07/11 06:01:56;;;;;;;4.13;1.40;;;12.30;99.90;;;;;;4203250;28;20216;-76
2022/07/11 06:03:58;;;;;;;2.93;1.20;;;12.40;99.90;;;;;;4205763;28;20258;-75
2022/07/11 06:06:04;;;;;;;2.93;1.10;;;12.50;99.90;;;;;;4203301;28;20208;-75
2022/07/11 06:10:27;;;;;;;1.87;1.00;;;12.60;99.90;;;;;;4201669;28;20582;-75
2022/07/11 06:12:29;;;;;;;3.77;1.27;;;12.70;99.90;;;;;;4203686;28;20739;-76
2022/07/11 06:14:31;;;;;;;5.13;1.27;;;12.70;99.90;;;;;;4192859;28;20259;-75
2022/07/11 06:16:35;;;;;;;3.33;1.20;;;12.80;99.90;;;;;;4202937;28;20239;-78
2022/07/11 06:18:39;;;;;;;2.00;0.90;;;12.80;99.90;;;;;;4180617;28;20208;-76
2022/07/11 06:20:41;;;;;;;3.23;1.17;;;12.90;99.90;;;;;;4185310;28;20205;-75
2022/07/11 06:22:42;;;;;;;3.70;1.27;;;12.90;99.90;;;;;;4201027;28;20205;-75
2022/07/11 06:24:45;;;;;;;3.13;1.20;;;13.00;99.90;;;;;;4184850;28;20229;-75
2022/07/11 06:26:47;;;;;;;2.00;1.10;;;13.10;99.90;;;;;;4200246;28;20672;-76
2022/07/11 06:28:49;;;;;;;3.10;0.83;;;13.20;99.90;;;;;;4199161;28;20637;-75
2022/07/11 06:30:51;;;;;;;1.93;0.90;;;13.20;99.90;;;;;;4198161;28;20225;-75
2022/07/11 06:32:53;;;;;;;1.40;0.90;;;13.30;99.90;;;;;;4199870;28;20577;-76
2022/07/11 06:34:58;;;;;;;1.57;0.70;;;13.40;99.90;;;;;;4196914;28;20679;-76
2022/07/11 06:37:01;;;;;;;1.67;0.83;;;13.50;99.90;;;;;;4195915;28;20582;-75
2022/07/11 06:39:03;;;;;;;2.47;1.00;;;13.60;99.90;;;;;;4183601;28;20236;-75
2022/07/11 06:41:05;;;;;;;3.43;0.90;;;13.70;99.90;;;;;;4200418;28;20236;-75
2022/07/11 06:43:07;;;;;;;1.73;0.80;;;13.80;99.90;;;;;;4200340;28;20213;-75
2022/07/11 06:45:10;;;;;;;0.70;0.67;;;13.90;99.90;;;;;;4181185;28;20272;-76
2022/07/11 06:47:12;;;;;;;1.23;0.70;;;14.00;99.90;;;;;;4201177;28;20212;-76
2022/07/11 06:49:14;;;;;;;3.37;0.83;;;14.20;99.90;;;;;;4201328;28;20251;-76
2022/07/11 06:51:17;;;;;;;2.67;1.03;;;14.30;99.90;;;;;;4205465;28;20427;-75
2022/07/11 06:53:19;;;;;;;2.57;0.80;;;14.40;99.90;;;;;;4184580;28;22257;-75
2022/07/11 06:55:24;;;;;;;2.40;0.80;;;14.40;99.90;;;;;;4205519;28;20232;-76
2022/07/11 06:57:26;;;;;;;5.20;0.90;;;14.50;99.90;;;;;;4201221;28;20276;-76
2022/07/11 06:59:28;;;;;;;2.70;1.00;;;14.60;99.90;;;;;;4182314;28;20207;-76
2022/07/11 07:01:30;;;;;;;0.80;0.60;;;14.60;99.90;;;;;;4189046;28;20244;-76
2022/07/11 07:03:33;;;;;;;1.93;0.70;;;14.70;99.90;;;;;;4187810;28;20243;-75
2022/07/11 07:05:35;;;;;;;3.40;0.70;;;14.70;99.90;;;;;;4186890;28;20229;-76
2022/07/11 07:07:38;;;;;;;1.77;0.70;;;14.80;99.90;;;;;;4200293;28;20243;-76
2022/07/11 07:09:41;;;;;;;1.63;0.63;;;14.80;99.90;;;;;;4203101;28;20213;-76
2022/07/11 07:11:43;;;;;;;0.93;0.53;;;14.80;99.90;;;;;;4201032;28;20290;-76
2022/07/11 07:13:45;;;;;;;1.30;0.70;;;14.80;99.90;;;;;;4202850;28;20312;-76
2022/07/11 07:15:47;;;;;;;1.90;0.70;;;14.80;99.90;;;;;;4201982;28;20239;-76
2022/07/11 07:17:49;;;;;;;1.77;0.80;;;14.80;99.90;;;;;;4188131;28;20560;-76
2022/07/11 07:19:51;;;;;;;1.40;0.70;;;14.80;99.90;;;;;;4202410;28;20308;-76
2022/07/11 07:21:53;;;;;;;1.03;0.73;;;14.90;99.90;;;;;;4196771;28;20219;-76
2022/07/11 07:23:56;;;;;;;1.07;0.70;;;14.90;99.90;;;;;;4197246;28;20312;-75
2022/07/11 07:25:58;;;;;;;0.77;0.70;;;14.90;99.90;;;;;;4196636;28;20215;-75
2022/07/11 07:28:07;;;;;;;4.63;0.77;;;15.00;99.90;;;;;;4182169;28;20294;-76
2022/07/11 07:30:11;;;;;;;2.03;0.80;;;15.00;99.90;;;;;;4197177;28;20208;-75
2022/07/11 07:32:13;;;;;;;0.43;0.43;;;15.10;99.90;;;;;;4189405;28;20210;-75
2022/07/11 07:34:15;;;;;;;1.07;0.53;;;15.10;99.90;;;;;;4202427;28;20218;-75
2022/07/11 07:36:17;;;;;;;0.87;0.70;;;15.20;99.90;;;;;;4202899;28;20205;-75
2022/07/11 07:38:19;;;;;;;0.90;0.60;;;15.20;99.90;;;;;;4201476;28;20207;-75
2022/07/11 07:40:26;;;;;;;0.93;0.60;;;15.30;99.90;;;;;;4183520;28;20239;-75
2022/07/11 07:42:28;;;;;;;1.17;0.60;;;15.40;99.90;;;;;;4183063;28;20208;-75
2022/07/11 07:44:29;;;;;;;0.80;0.60;;;15.50;99.90;;;;;;4182403;28;20231;-75
2022/07/11 07:46:31;;;;;;;1.20;0.70;;;15.60;99.90;;;;;;4201074;28;20236;-75
2022/07/11 07:48:33;;;;;;;3.63;0.80;;;15.70;99.90;;;;;;4202298;28;20230;-75
2022/07/11 07:50:35;;;;;;;3.43;0.90;;;15.70;99.90;;;;;;4182732;28;20252;-75
2022/07/11 07:52:37;;;;;;;2.83;0.80;;;15.70;99.90;;;;;;4184954;28;20209;-75
2022/07/11 07:54:39;;;;;;;3.80;1.10;;;15.70;99.90;;;;;;4204347;28;20248;-75
2022/07/11 07:56:42;;;;;;;0.87;0.70;;;15.70;99.90;;;;;;4197319;28;20672;-76
2022/07/11 07:58:44;;;;;;;2.23;0.97;;;15.70;99.90;;;;;;4187317;28;20228;-75
2022/07/11 08:03:06;;;;;;;1.67;0.60;;;15.70;99.90;;;;;;4199938;28;20681;-75
2022/07/11 08:05:10;;;;;;;1.90;0.80;;;15.80;99.90;;;;;;4185652;28;20226;-75
2022/07/11 08:07:11;;;;;;;5.53;0.87;;;15.80;99.90;;;;;;4204209;28;20215;-75
2022/07/11 08:09:13;;;;;;;2.70;0.70;;;15.80;99.90;;;;;;4205857;28;20211;-75
2022/07/11 08:11:16;;;;;;;3.23;0.90;;;15.90;99.90;;;;;;4187732;28;20233;-74
2022/07/11 08:13:20;;;;;;;2.73;1.03;;;15.90;99.90;;;;;;4202343;28;20273;-75
2022/07/11 08:15:24;;;;;;;2.47;0.90;;;15.90;99.90;;;;;;4186758;28;20225;-75
2022/07/11 08:17:26;;;;;;;1.53;0.87;;;16.00;99.90;;;;;;4205309;28;20242;-74
2022/07/11 08:19:30;;;;;;;1.53;0.87;;;16.00;99.90;;;;;;4204802;28;20213;-74
2022/07/11 08:21:33;;;;;;;1.60;0.77;;;16.10;99.90;;;;;;4205692;28;20213;-75
2022/07/11 08:23:35;;;;;;;0.80;0.60;;;16.10;99.90;;;;;;4186842;28;20297;-75
2022/07/11 08:25:37;;;;;;;0.73;0.50;;;16.20;99.90;;;;;;4204357;28;20224;-75
2022/07/11 08:27:40;;;;;;;1.10;0.60;;;16.30;99.90;;;;;;4186877;28;20737;-75
2022/07/11 08:29:43;;;;;;;0.57;0.50;;;16.40;99.90;;;;;;4204215;28;20724;-75
2022/07/11 08:31:45;;;;;;;1.23;0.70;;;16.50;99.90;;;;;;4203407;28;20233;-75
2022/07/11 08:33:47;;;;;;;0.90;0.60;;;16.60;99.90;;;;;;4185827;28;20234;-75
2022/07/11 08:35:49;;;;;;;1.20;0.60;;;16.60;99.90;;;;;;4205709;28;20232;-76
2022/07/11 08:37:51;;;;;;;0.80;0.40;;;16.60;99.90;;;;;;4204261;28;20516;-75
2022/07/11 08:39:53;;;;;;;1.33;0.80;;;16.60;99.90;;;;;;4208603;28;20227;-75
2022/07/11 08:41:58;;;;;;;2.77;0.80;;;16.60;99.90;;;;;;4204596;28;20422;-74
2022/07/11 08:44:00;;;;;;;2.80;1.10;;;16.60;99.90;;;;;;4206125;28;20260;-74
2022/07/11 08:46:07;;;;;;;2.90;1.00;;;16.60;99.90;;;;;;4204212;28;20681;-75
2022/07/11 08:48:10;;;;;;;2.10;1.10;;;16.70;99.90;;;;;;4186946;28;20225;-74
2022/07/11 08:50:13;;;;;;;3.00;1.20;;;16.70;99.90;;;;;;4200547;28;21121;-74
2022/07/11 08:52:19;;;;;;;1.77;0.90;;;16.80;99.90;;;;;;4204432;28;20568;-74
2022/07/11 08:54:21;;;;;;;1.60;0.70;;;16.90;99.90;;;;;;4186691;28;20225;-74
2022/07/11 08:56:23;;;;;;;1.30;0.70;;;17.00;99.90;;;;;;4203491;28;20197;-74
2022/07/11 08:58:25;;;;;;;1.30;0.70;;;17.10;99.90;;;;;;4187846;28;20761;-74
2022/07/11 09:00:27;;;;;;;2.77;0.90;;;17.20;99.70;;;;;;4192494;28;21003;-74
2022/07/11 09:02:31;;;;;;;1.03;0.80;;;17.20;99.00;;;;;;4204906;28;20209;-74
2022/07/11 09:04:33;;;;;;;0.63;0.57;;;17.20;97.10;;;;;;4182924;28;20230;-75
2022/07/11 09:06:35;;;;;;;1.40;0.57;;;17.30;95.90;;;;;;4204073;28;20224;-74
2022/07/11 09:08:38;;;;;;;1.57;0.80;;;17.30;94.70;;;;;;4200212;28;20582;-74
2022/07/11 09:10:41;;;;;;;1.37;0.70;;;17.30;95.00;;;;;;4206320;28;20254;-75
2022/07/11 09:13:01;;;;;;;1.40;0.70;;;17.40;97.90;;;;;;4204539;28;20604;-76
2022/07/11 09:15:03;;;;;;;0.97;0.70;;;17.50;93.30;;;;;;4186170;28;20633;-77
2022/07/11 09:17:10;;;;;;;0.90;0.70;;;17.60;94.30;;;;;;4199336;28;20237;-77
2022/07/11 09:19:24;;;;;;;0.70;0.60;;;17.70;95.50;;;;;;4201343;28;20264;-74
2022/07/11 09:26:08;;;;;;;0.83;0.70;;;18.00;91.60;;;;;;4192541;28;20257;-75
2022/07/11 09:28:10;;;;;;;0.80;0.50;;;18.00;90.90;;;;;;4202309;28;20226;-74
2022/07/11 09:30:25;;;;;;;0.43;0.43;;;18.10;91.00;;;;;;4204171;28;20761;-74
2022/07/11 09:32:27;;;;;;;1.03;0.50;;;18.10;91.00;;;;;;4201401;28;20705;-74
2022/07/11 09:34:31;;;;;;;0.60;0.50;;;18.10;92.70;;;;;;4203537;28;20709;-75
2022/07/11 09:36:38;;;;;;;0.40;0.40;;;18.20;82.60;;;;;;4187411;28;20218;-74
2022/07/11 09:38:57;;;;;;;0.87;0.50;;;18.30;80.20;;;;;;4187509;28;20299;-75
2022/07/11 09:41:11;;;;;;;1.17;0.60;;;18.30;82.00;;;;;;4205052;28;20576;-76
2022/07/11 09:43:13;;;;;;;1.17;0.63;;;18.40;80.00;;;;;;4196787;28;20211;-74
2022/07/11 09:45:15;;;;;;;0.53;0.53;;;18.30;80.70;;;;;;4200444;28;20226;-74
2022/07/11 09:47:17;;;;;;;0.60;0.60;;;18.30;71.60;;;;;;4202248;28;20238;-76
2022/07/11 09:49:34;;;;;;;0.50;0.50;;;18.30;78.00;;;;;;4200735;28;20759;-74
2022/07/11 09:51:38;;;;;;;1.20;0.70;;;18.50;80.90;;;;;;4199797;28;20230;-75
2022/07/11 09:53:54;;;;;;;1.90;0.80;;;18.60;80.90;;;;;;4202046;28;20208;-74
2022/07/11 09:55:56;;;;;;;1.10;0.60;;;18.70;77.60;;;;;;4201200;28;20206;-74
2022/07/11 09:57:58;;;;;;;2.63;0.70;;;18.80;70.30;;;;;;4183247;28;20212;-74
2022/07/11 10:00:01;;;;;;;1.37;0.60;;;18.90;71.30;;;;;;4204886;28;20212;-75
2022/07/11 10:02:10;;;;;;;1.07;0.67;;;18.90;70.30;;;;;;4185708;28;20225;-76
2022/07/11 10:04:12;;;;;;;1.93;0.50;;;18.80;67.50;;;;;;4179044;28;20831;-74
2022/07/11 10:06:16;;;;;;;1.70;0.60;;;18.90;70.90;;;;;;4206460;28;20233;-74
2022/07/11 10:08:18;;;;;;;0.60;0.50;;;18.80;69.50;;;;;;4181582;28;20204;-74
2022/07/11 10:10:20;;;;;;;0.60;0.60;;;18.90;68.40;;;;;;4183354;28;20242;-74
2022/07/11 10:12:22;;;;;;;0.40;0.40;;;18.80;58.30;;;;;;4196648;28;20229;-74
2022/07/11 10:14:24;;;;;;;0.83;0.50;;;18.90;66.50;;;;;;4181610;28;20240;-74
2022/07/11 10:16:43;;;;;;;1.23;0.50;;;19.00;63.00;;;;;;4178647;28;20208;-74
2022/07/11 10:18:51;;;;;;;1.00;0.60;;;19.20;62.00;;;;;;4204675;28;20235;-77
2022/07/11 10:20:59;;;;;;;0.67;0.40;;;19.30;59.00;;;;;;4200991;28;20215;-74
2022/07/11 10:23:10;;;;;;;1.47;0.53;;;19.30;61.20;;;;;;4199137;28;20211;-74
2022/07/11 10:25:21;;;;;;;0.70;0.70;;;19.40;63.80;;;;;;4182172;28;20768;-74
2022/07/11 10:27:30;;;;;;;2.70;0.60;;;19.50;58.90;;;;;;4201212;28;20207;-74
2022/07/11 10:29:36;;;;;;;0.70;0.60;;;19.60;60.00;;;;;;4180307;28;20700;-74
2022/07/11 10:31:38;;;;;;;1.10;0.57;;;19.70;66.60;;;;;;4195070;28;20215;-74
2022/07/11 10:34:01;;;;;;;0.60;0.60;;;19.80;63.10;;;;;;4202738;28;20210;-74
2022/07/11 10:36:03;;;;;;;0.67;0.67;;;19.90;61.10;;;;;;4195770;28;20206;-74
2022/07/11 10:38:07;;;;;;;2.27;0.67;;;20.00;57.50;;;;;;4203011;28;20296;-75
2022/07/11 10:40:10;;;;;;;0.40;0.40;;;20.20;58.60;;;;;;4189409;28;20605;-75
2022/07/11 10:42:20;;;;;;;1.23;0.60;;;20.20;57.70;;;;;;4204302;28;20751;-75
2022/07/11 10:44:23;;;;;;;1.13;0.53;;;20.40;58.70;;;;;;4204692;28;20311;-74
2022/07/11 10:46:28;;;;;;;1.37;0.60;;;20.40;54.00;;;;;;4185406;28;20224;-74
2022/07/11 10:48:31;;;;;;;1.00;0.70;;;20.30;52.20;;;;;;4201329;28;20666;-74
2022/07/11 10:50:37;;;;;;;3.23;0.90;;;20.40;53.30;;;;;;4200200;28;20212;-74
2022/07/11 10:52:42;;;;;;;1.30;0.60;;;20.30;50.90;;;;;;4202805;28;20681;-75
2022/07/11 10:55:00;;;;;;;0.73;0.50;;;20.30;49.20;;;;;;4199765;28;20239;-75
2022/07/11 10:57:12;;;;;;;0.67;0.40;;;20.30;50.90;;;;;;4203820;28;20567;-76
2022/07/11 10:59:16;;;;;;;1.17;0.60;;;20.30;51.30;;;;;;4193672;28;20661;-75
2022/07/11 11:01:18;;;;;;;0.83;0.63;;;20.40;51.80;;;;;;4178922;28;20204;-74
2022/07/11 11:03:20;;;;;;;3.40;0.60;;;20.50;50.70;;;;;;4198104;28;20652;-74
2022/07/11 11:05:48;;;;;;;1.10;0.50;;;20.70;52.10;;;;;;4197725;28;20248;-74
2022/07/11 11:07:51;;;;;;;1.33;0.60;;;20.80;51.70;;;;;;4198508;28;20828;-75
2022/07/11 11:09:54;;;;;;;0.70;0.60;;;21.00;52.50;;;;;;4200950;28;20240;-75
2022/07/11 11:11:56;;;;;;;1.17;0.60;;;21.30;52.00;;;;;;4197691;28;20685;-75
2022/07/11 11:14:28;;;;;;;0.33;0.33;;;21.40;49.40;;;;;;4183233;28;20341;-75
2022/07/11 11:16:30;;;;;;;1.37;0.50;;;21.50;47.90;;;;;;4202939;28;20194;-75
2022/07/11 11:18:37;;;;;;;2.53;0.60;;;21.60;47.90;;;;;;4198259;28;20207;-75
2022/07/11 11:20:39;;;;;;;0.80;0.60;;;21.70;47.40;;;;;;4205613;28;20793;-74
2022/07/11 11:22:41;;;;;;;1.90;0.60;;;21.70;47.20;;;;;;4186724;28;20302;-75
2022/07/11 11:24:44;;;;;;;0.50;0.50;;;21.90;48.60;;;;;;4206382;28;20230;-75
2022/07/11 11:26:49;;;;;;;2.27;0.60;;;22.10;47.10;;;;;;4203909;28;20227;-75
2022/07/11 11:28:59;;;;;;;1.53;0.70;;;22.20;47.20;;;;;;4203902;28;20231;-75
2022/07/11 11:31:03;;;;;;;1.40;0.80;;;22.20;44.80;;;;;;4192289;28;20207;-75
2022/07/11 11:33:16;;;;;;;1.73;0.57;;;22.10;45.90;;;;;;4204000;28;20297;-75
2022/07/11 11:35:18;;;;;;;1.13;0.77;;;22.20;47.50;;;;;;4205942;28;20234;-75
2022/07/11 11:37:22;;;;;;;1.33;0.60;;;22.20;45.10;;;;;;4202659;28;20202;-74
2022/07/11 11:39:29;;;;;;;1.20;0.63;;;22.30;46.00;;;;;;4201947;28;20425;-75
2022/07/11 11:41:32;;;;;;;1.27;0.50;;;22.30;44.00;;;;;;4186690;28;20224;-75
2022/07/11 11:43:36;;;;;;;1.57;0.50;;;22.40;44.60;;;;;;4206807;28;20228;-75
2022/07/11 11:45:38;;;;;;;1.47;0.80;;;22.50;46.10;;;;;;4206290;28;20735;-75
2022/07/11 11:47:48;;;;;;;0.90;0.70;;;22.60;46.70;;;;;;4206921;28;20586;-74
2022/07/11 11:49:51;;;;;;;1.60;0.70;;;22.80;45.00;;;;;;4203953;28;20684;-76
2022/07/11 11:51:56;;;;;;;2.60;0.80;;;22.90;46.20;;;;;;4203983;28;20219;-75
2022/07/11 11:53:59;;;;;;;1.13;0.73;;;23.00;45.30;;;;;;4204401;28;20307;-75
2022/07/11 11:56:01;;;;;;;0.80;0.53;;;23.20;42.70;;;;;;4205885;28;20700;-75
2022/07/11 11:58:03;;;;;;;1.43;0.50;;;23.40;43.50;;;;;;4205693;28;20584;-75
2022/07/11 12:00:22;;;;;;;1.13;0.50;;;23.50;40.90;;;;;;4185495;28;20255;-74
2022/07/11 12:02:30;;;;;;;1.50;0.57;;;23.70;40.20;;;;;;4208006;28;20280;-75
2022/07/11 12:04:33;;;;;;;1.70;0.50;;;23.70;39.70;;;;;;4201165;28;20682;-75
2022/07/11 12:06:37;;;;;;;0.40;0.40;;;23.80;39.20;;;;;;4202446;28;20260;-75
2022/07/11 12:08:39;;;;;;;2.20;0.70;;;24.00;40.30;;;;;;4202587;28;20668;-75
2022/07/11 12:10:41;;;;;;;0.33;0.33;;;24.30;40.10;;;;;;4202737;28;20284;-75
2022/07/11 12:12:47;;;;;;;1.13;0.40;;;24.60;38.40;;;;;;4201310;28;20236;-75
2022/07/11 12:14:49;;;;;;;1.00;0.40;;;25.00;38.20;;;;;;4205372;28;20595;-74
2022/07/11 12:16:52;;;;;;;2.37;0.60;;;25.40;38.60;;;;;;4186637;28;20676;-75
2022/07/11 12:18:54;;;;;;;2.47;0.70;;;25.60;38.30;;;;;;4207679;28;20217;-75
2022/07/11 12:20:57;;;;;;;0.70;0.43;;;25.80;37.80;;;;;;4206326;28;20608;-74